Williston, ND (58801)

3:30 AM CDT on September 04, 2015 (GMT -0500)
Sloulin International | | Change Station
CLOSE
Current Station
Airport
Location: Williston,
Elevation: 1906 ft
Nearby Weather Stations

Elev 1906 ft 48.17 °N, 103.64 °W | Updated 38 minutes ago

Overcast
Overcast
66 °F
Feels Like 66 °F
N
21
Wind Variable Wind from NNE
Gusts 28 mph

Today
High -- | Low -- °F
--% Chance of Precip.
Yesterday
High -- | Low -- °F
Precip. -- in
7:16 AM 8:30 PM
Waning Gibbous, 62% visible
Pressure 29.78 in
Visibility 10.0 miles
Clouds Scattered Clouds 8500 ft
Dew Point 42 °F
Humidity 42%
Rainfall 0.00 in
Snow Depth Not available.
UV 0 out of 12
Pollen 9.80 out of 12
Air Quality Not available.
Flu Activity Not available.
METAR KISN 040752Z AUTO 02018G24KT 10SM SCT085 19/06 A2982 RMK AO2 PK WND 01027/0715 SLP084 T01890056
Pressure 29.78 in
Visibility 10.0 miles
Clouds Scattered Clouds 8500 ft
Dew Point 42 °F
Humidity 42%
Rainfall 0.00 in
Snow Depth Not available.
UV 0 out of 12
Pollen 9.80 out of 12
Air Quality Not available.
Flu Activity Not available.
METAR KISN 040752Z AUTO 02018G24KT 10SM SCT085 19/06 A2982 RMK AO2 PK WND 01027/0715 SLP084 T01890056

10-Day Weather Forecast

×

Almanac

Astronomy

Sep. 04, 2015 Rise Set
Actual Time
Civil Twilight
Nautical Twilight
Astronomical Twilight
Moon
Length of Visible Light
Length of Day
Tomorrow will be .
, % of the Moon is Illuminated

Today's Extremes

State Highs State Lows

Community

WunderPhotos

Upload Photos

1,852,141 photos uploaded!

WunderBlogs® & News

Nearby

Air Quality

  Air Quality AQ Index Pollutant
Not available.

Snow Depth

Station Depth Elevation

Earthquake Activity

City Distance Mag. Time & Date
Minimum magnitude displayed is 2.5.

Coastal Water Temperatures

Place Temperature

Stations

Nearby Weather Stations

Station Location Temp. Windchill Dew Point Humidity Wind Precip. Elev Updated Type